createdAt,value
2022-09-25T00:00:36.659Z,9.67
2022-09-25T00:01:58.129Z,9.83
2022-09-25T00:03:19.714Z,8.51
2022-09-25T00:04:41.061Z,9.16
2022-09-25T00:07:20.192Z,9.11
2022-09-25T00:08:41.850Z,9.53
2022-09-25T00:10:03.782Z,10.56
2022-09-25T00:11:27.149Z,10.13
2022-09-25T00:12:48.641Z,11.35
2022-09-25T00:14:10.338Z,13.84
2022-09-25T00:15:34.440Z,12.53
2022-09-25T00:16:55.867Z,11.41
2022-09-25T00:18:17.570Z,10.77
2022-09-25T00:19:38.806Z,12.50
2022-09-25T00:21:00.707Z,10.91
2022-09-25T00:22:22.849Z,9.76
2022-09-25T00:23:44.329Z,7.86
2022-09-25T00:25:05.915Z,11.84
2022-09-25T00:26:27.963Z,8.78
2022-09-25T00:27:50.954Z,9.31
2022-09-25T00:29:17.341Z,8.67
2022-09-25T00:30:41.413Z,9.09
2022-09-25T00:32:03.535Z,9.16
2022-09-25T00:33:25.044Z,9.23
2022-09-25T00:34:46.347Z,6.80
2022-09-25T00:36:09.278Z,8.29
2022-09-25T00:37:32.716Z,9.36
2022-09-25T00:38:53.985Z,11.07
2022-09-25T00:40:15.935Z,22.38
2022-09-25T00:41:37.169Z,27.31
2022-09-25T00:42:58.628Z,22.59
2022-09-25T00:44:42.983Z,23.73
2022-09-25T00:47:21.860Z,28.62
2022-09-25T00:49:02.554Z,28.74
2022-09-25T00:50:45.407Z,26.88
2022-09-25T00:52:09.604Z,28.27
2022-09-25T00:53:33.596Z,34.23
2022-09-25T00:54:57.779Z,30.14
2022-09-25T00:56:19.113Z,28.77
2022-09-25T00:57:40.806Z,20.78
2022-09-25T00:59:02.488Z,29.69
2022-09-25T01:00:23.949Z,31.51
2022-09-25T01:01:45.784Z,48.77
2022-09-25T01:03:07.106Z,43.99
2022-09-25T01:04:29.114Z,41.43
2022-09-25T01:05:50.637Z,36.32
2022-09-25T01:07:12.200Z,40.74
2022-09-25T01:09:52.858Z,18.98
2022-09-25T01:11:14.182Z,21.30
2022-09-25T01:12:36.562Z,14.64
2022-09-25T01:13:59.687Z,15.28
2022-09-25T01:16:52.124Z,12.53
2022-09-25T01:18:17.419Z,10.09
2022-09-25T01:19:42.427Z,9.73
2022-09-25T01:21:26.900Z,9.66
2022-09-25T01:23:11.847Z,7.22
2022-09-25T01:24:53.075Z,7.88
2022-09-25T01:26:19.093Z,7.19
2022-09-25T01:27:47.044Z,6.44
2022-09-25T01:29:16.220Z,8.54
2022-09-25T01:30:41.955Z,7.59
2022-09-25T01:33:46.309Z,6.10
2022-09-25T01:36:50.035Z,7.15
2022-09-25T01:38:17.764Z,9.79
2022-09-25T01:39:42.662Z,8.37
2022-09-25T01:41:13.482Z,8.70
2022-09-25T01:42:38.681Z,7.71
2022-09-25T01:44:15.131Z,8.55
2022-09-25T01:46:57.969Z,7.73
2022-09-25T01:48:21.830Z,7.82
2022-09-25T01:49:50.781Z,6.10
2022-09-25T01:52:45.405Z,8.55
2022-09-25T01:54:09.112Z,10.85
2022-09-25T01:56:51.925Z,22.43
2022-09-25T01:58:31.633Z,30.97
2022-09-25T02:01:22.923Z,18.18
2022-09-25T02:04:10.511Z,70.88
2022-09-25T02:05:41.373Z,27.17
2022-09-25T02:07:03.643Z,10.63
2022-09-25T02:09:51.218Z,20.62
2022-09-25T02:11:12.759Z,12.83
2022-09-25T02:12:36.958Z,12.44
2022-09-25T02:14:03.084Z,7.83
2022-09-25T02:15:33.970Z,7.35
2022-09-25T02:16:55.824Z,7.24
2022-09-25T02:18:17.319Z,8.71
2022-09-25T02:19:38.534Z,9.65
2022-09-25T02:21:29.490Z,7.43
2022-09-25T02:22:51.327Z,8.98
2022-09-25T02:24:30.598Z,7.60
2022-09-25T02:25:58.447Z,7.76
2022-09-25T02:27:20.128Z,9.29
2022-09-25T02:28:42.390Z,8.80
2022-09-25T02:30:04.521Z,6.91
2022-09-25T02:32:38.484Z,7.34
2022-09-25T02:33:59.980Z,8.03
2022-09-25T02:35:21.387Z,6.39
2022-09-25T02:36:43.137Z,7.31
2022-09-25T02:38:04.951Z,10.18
2022-09-25T02:39:28.836Z,8.59
2022-09-25T02:42:37.342Z,10.35
2022-09-25T02:44:14.543Z,9.13
2022-09-25T02:47:22.796Z,9.76
2022-09-25T02:48:53.332Z,9.42
2022-09-25T02:50:25.028Z,8.90
2022-09-25T02:51:58.818Z,7.84
2022-09-25T02:53:43.728Z,7.93
2022-09-25T03:09:15.187Z,23.44
2022-09-25T03:11:52.659Z,27.79
2022-09-25T03:13:18.571Z,18.64
2022-09-25T03:14:40.026Z,17.12
2022-09-25T03:16:10.401Z,18.99
2022-09-25T03:17:32.030Z,17.80
2022-09-25T03:20:03.295Z,11.07
2022-09-25T03:21:24.569Z,8.53
2022-09-25T03:22:46.156Z,12.95
2022-09-25T03:25:17.869Z,16.24
2022-09-25T03:26:39.941Z,9.91
2022-09-25T03:28:01.563Z,26.06
2022-09-25T03:29:22.628Z,30.79
2022-09-25T03:30:43.901Z,26.77
2022-09-25T03:32:05.065Z,21.12
2022-09-25T03:33:27.900Z,29.26
2022-09-25T03:34:48.951Z,56.11
2022-09-25T03:36:14.960Z,38.99
2022-09-25T03:37:36.279Z,31.78
2022-09-25T03:38:57.911Z,24.17
2022-09-25T03:40:19.347Z,35.16
2022-09-25T03:41:40.545Z,33.12
2022-09-25T03:44:23.061Z,10.51
2022-09-25T03:45:44.105Z,8.40
2022-09-25T03:47:05.691Z,8.84
2022-09-25T03:48:27.239Z,12.17
2022-09-25T03:49:48.427Z,10.52
2022-09-25T03:51:10.235Z,8.53
2022-09-25T03:52:31.482Z,9.82
2022-09-25T03:53:53.194Z,8.79
2022-09-25T03:55:14.920Z,10.59
2022-09-25T03:56:36.773Z,8.76
2022-09-25T03:57:58.311Z,9.29
2022-09-25T03:59:19.496Z,11.38
2022-09-25T04:00:40.947Z,7.69
2022-09-25T04:02:02.679Z,10.67
2022-09-25T04:03:24.699Z,10.24
2022-09-25T04:04:46.960Z,11.19
2022-09-25T04:06:09.072Z,31.81
2022-09-25T04:07:30.377Z,26.80
2022-09-25T04:08:51.506Z,24.99
2022-09-25T04:10:15.017Z,23.43
2022-09-25T04:11:36.351Z,25.18
2022-09-25T04:12:57.881Z,18.67
2022-09-25T04:14:19.040Z,16.87
2022-09-25T04:15:40.878Z,15.02
2022-09-25T04:17:02.320Z,14.45
2022-09-25T04:18:24.431Z,15.51
2022-09-25T04:19:45.876Z,15.11
2022-09-25T04:21:08.631Z,12.51
2022-09-25T04:22:29.997Z,11.78
2022-09-25T04:23:51.572Z,18.43
2022-09-25T04:25:13.432Z,15.08
2022-09-25T04:26:35.043Z,19.81
2022-09-25T04:27:56.464Z,13.98
2022-09-25T04:29:17.569Z,18.72
2022-09-25T04:30:39.170Z,19.22
2022-09-25T04:32:01.427Z,10.32
2022-09-25T04:33:22.815Z,13.29
2022-09-25T04:34:44.091Z,14.96
2022-09-25T04:36:05.565Z,11.57
2022-09-25T04:37:27.022Z,15.79
2022-09-25T04:38:48.346Z,8.94
2022-09-25T04:40:10.250Z,10.07
2022-09-25T04:41:31.255Z,13.62
2022-09-25T04:44:07.153Z,33.72
2022-09-25T04:45:29.323Z,37.26
2022-09-25T04:46:50.812Z,27.96
2022-09-25T04:48:12.432Z,30.88
2022-09-25T04:49:34.393Z,32.62
2022-09-25T04:50:57.033Z,17.47
2022-09-25T04:52:18.555Z,9.84
2022-09-25T04:53:40.454Z,8.87
2022-09-25T04:55:01.653Z,10.90
2022-09-25T04:56:22.742Z,11.56
2022-09-25T04:57:58.470Z,12.24
2022-09-25T05:00:29.876Z,20.17
2022-09-25T05:01:54.335Z,17.94
2022-09-25T05:03:16.470Z,16.03
2022-09-25T05:04:38.183Z,16.48
2022-09-25T05:05:59.293Z,17.74
2022-09-25T05:07:20.729Z,12.19
2022-09-25T05:08:42.398Z,13.57
2022-09-25T05:10:04.340Z,12.71
2022-09-25T05:12:35.323Z,12.49
2022-09-25T05:13:57.057Z,15.44
2022-09-25T05:15:18.798Z,36.82
2022-09-25T05:16:41.527Z,30.74
2022-09-25T05:18:07.386Z,26.98
2022-09-25T05:19:28.629Z,38.46
2022-09-25T05:20:50.970Z,42.88
2022-09-25T05:22:12.440Z,18.29
2022-09-25T05:23:34.384Z,16.70
2022-09-25T05:24:59.028Z,20.44
2022-09-25T05:26:19.173Z,15.80
2022-09-25T05:27:40.244Z,15.86
2022-09-25T05:29:01.788Z,15.69
2022-09-25T05:30:24.099Z,12.80
2022-09-25T05:31:46.519Z,14.41
2022-09-25T05:33:08.164Z,11.52
2022-09-25T05:34:29.684Z,14.82
2022-09-25T05:35:51.346Z,10.88
2022-09-25T05:37:12.908Z,16.69
2022-09-25T05:38:35.435Z,14.64
2022-09-25T05:39:57.067Z,13.89
2022-09-25T05:41:18.479Z,16.13
2022-09-25T05:42:40.647Z,13.71
2022-09-25T05:44:02.013Z,13.05
2022-09-25T05:45:23.338Z,11.41
2022-09-25T05:46:44.599Z,11.11
2022-09-25T05:48:06.848Z,10.79
2022-09-25T05:49:28.146Z,12.01
2022-09-25T05:50:53.407Z,10.68
2022-09-25T05:52:14.931Z,11.78
2022-09-25T05:53:36.569Z,10.77
2022-09-25T05:54:58.096Z,15.07
2022-09-25T05:56:20.912Z,13.70
2022-09-25T05:57:42.354Z,10.71
2022-09-25T05:59:04.302Z,19.89
2022-09-25T06:00:26.649Z,20.62
2022-09-25T06:01:48.143Z,15.32
2022-09-25T06:03:09.526Z,17.39
2022-09-25T06:04:30.977Z,12.73
2022-09-25T06:05:54.591Z,11.50
2022-09-25T06:07:16.012Z,12.36
2022-09-25T06:08:38.167Z,16.31
2022-09-25T06:09:59.901Z,19.25
2022-09-25T06:11:23.383Z,14.59
2022-09-25T06:12:44.865Z,12.01
2022-09-25T06:14:07.196Z,14.87
2022-09-25T06:15:30.576Z,12.06
2022-09-25T06:16:53.168Z,12.66
2022-09-25T06:18:14.656Z,12.69
2022-09-25T06:19:35.850Z,12.70
2022-09-25T06:21:01.752Z,12.12
2022-09-25T06:22:22.943Z,10.06
2022-09-25T06:23:44.280Z,11.29
2022-09-25T06:25:06.982Z,11.03
2022-09-25T06:26:28.587Z,9.72
2022-09-25T06:27:53.284Z,12.81
2022-09-25T06:29:14.678Z,17.01
2022-09-25T06:30:35.949Z,23.62
2022-09-25T06:31:57.016Z,25.14
2022-09-25T06:33:18.647Z,18.36
2022-09-25T06:34:42.834Z,11.03
2022-09-25T06:36:05.600Z,11.93
2022-09-25T06:37:28.067Z,9.31
2022-09-25T06:40:05.678Z,9.79
2022-09-25T06:41:27.028Z,10.30
2022-09-25T06:42:52.377Z,11.02
2022-09-25T06:44:13.991Z,10.41
2022-09-25T06:45:35.508Z,9.23
2022-09-25T06:46:58.182Z,10.25
2022-09-25T06:48:19.455Z,10.44
2022-09-25T06:49:40.996Z,10.12
2022-09-25T06:51:02.955Z,13.36
2022-09-25T06:52:25.988Z,12.43
2022-09-25T06:53:47.279Z,11.98
2022-09-25T06:55:08.891Z,13.53
2022-09-25T06:56:30.126Z,13.88
2022-09-25T06:57:51.608Z,9.81
2022-09-25T06:59:13.289Z,10.58
2022-09-25T07:00:35.188Z,9.12
2022-09-25T07:01:58.847Z,9.56
2022-09-25T07:03:20.213Z,10.62
2022-09-25T07:04:42.461Z,14.19
2022-09-25T07:06:04.723Z,10.49
2022-09-25T07:07:25.939Z,10.43
2022-09-25T07:08:47.978Z,13.78
2022-09-25T07:10:09.317Z,12.31
2022-09-25T07:11:31.099Z,10.72
2022-09-25T07:12:53.500Z,14.58
2022-09-25T07:14:15.814Z,12.84
2022-09-25T07:15:37.422Z,10.53
2022-09-25T07:16:59.151Z,11.81
2022-09-25T07:20:06.725Z,8.83
2022-09-25T07:21:27.812Z,9.92
2022-09-25T07:22:50.523Z,10.56
2022-09-25T07:24:12.188Z,12.37
2022-09-25T07:25:33.297Z,14.17
2022-09-25T07:26:54.840Z,11.47
2022-09-25T07:28:16.296Z,14.22
2022-09-25T07:29:37.819Z,10.05
2022-09-25T07:30:58.991Z,19.44
2022-09-25T07:32:20.268Z,34.82
2022-09-25T07:33:41.623Z,32.96
2022-09-25T07:35:03.476Z,13.88
2022-09-25T07:36:24.653Z,13.01
2022-09-25T07:37:46.061Z,15.04
2022-09-25T07:39:07.412Z,14.60
2022-09-25T07:40:30.809Z,11.51
2022-09-25T07:41:54.020Z,11.66
2022-09-25T07:43:17.559Z,11.38
2022-09-25T07:44:39.526Z,8.71
2022-09-25T07:46:02.176Z,10.33
2022-09-25T07:47:23.710Z,10.51
2022-09-25T07:48:49.844Z,8.24
2022-09-25T07:50:15.397Z,10.02
2022-09-25T07:52:56.332Z,10.80
2022-09-25T07:54:17.728Z,9.36
2022-09-25T07:55:39.162Z,9.33
2022-09-25T07:57:00.700Z,9.51
2022-09-25T07:58:21.820Z,10.34
2022-09-25T07:59:43.131Z,10.62
2022-09-25T08:01:06.394Z,11.39
2022-09-25T08:02:27.988Z,9.86
2022-09-25T08:03:49.272Z,8.91
2022-09-25T08:05:11.355Z,9.23
2022-09-25T08:06:34.880Z,11.09
2022-09-25T08:07:56.162Z,10.63
2022-09-25T08:09:17.253Z,11.07
2022-09-25T08:10:38.700Z,10.53
2022-09-25T08:11:59.864Z,9.41
2022-09-25T08:13:21.273Z,10.03
2022-09-25T08:14:42.855Z,10.81
2022-09-25T08:16:05.211Z,10.78
2022-09-25T08:17:27.585Z,8.09
2022-09-25T08:18:49.300Z,11.94
2022-09-25T08:20:11.175Z,12.26
2022-09-25T08:21:33.331Z,11.30
2022-09-25T08:22:54.742Z,10.63
2022-09-25T08:24:15.891Z,10.02
2022-09-25T08:25:37.560Z,11.49
2022-09-25T08:26:58.694Z,7.92
2022-09-25T08:28:20.301Z,9.02
2022-09-25T08:29:42.103Z,8.63
2022-09-25T08:31:03.600Z,9.38
2022-09-25T08:32:24.975Z,7.48
2022-09-25T08:33:47.046Z,7.50
2022-09-25T08:35:08.805Z,7.66
2022-09-25T08:36:30.159Z,7.06
2022-09-25T08:37:51.749Z,8.85
2022-09-25T08:39:15.906Z,6.87
2022-09-25T08:40:43.002Z,6.54
2022-09-25T08:42:03.370Z,6.64
2022-09-25T08:43:25.464Z,9.32
2022-09-25T08:45:08.974Z,7.87
2022-09-25T08:46:22.121Z,10.03
2022-09-25T08:47:43.340Z,8.82
2022-09-25T08:49:04.477Z,10.74
2022-09-25T08:50:26.957Z,9.06
2022-09-25T08:51:49.383Z,7.81
2022-09-25T08:53:24.977Z,7.94
2022-09-25T08:54:46.454Z,13.08
2022-09-25T08:56:09.453Z,10.51
2022-09-25T08:57:36.531Z,7.01
2022-09-25T08:59:11.692Z,10.42
2022-09-25T09:00:35.609Z,7.28
2022-09-25T09:02:01.595Z,9.36
2022-09-25T09:04:47.141Z,8.66
2022-09-25T09:06:12.279Z,7.91
2022-09-25T09:07:38.490Z,9.87
2022-09-25T09:10:29.708Z,8.14
2022-09-25T09:11:54.233Z,8.39
2022-09-25T09:14:37.324Z,9.96
2022-09-25T09:16:02.441Z,8.38
2022-09-25T09:17:25.972Z,10.07
2022-09-25T09:18:49.391Z,8.18
2022-09-25T09:21:59.713Z,8.14
2022-09-25T09:23:24.420Z,8.91
2022-09-25T09:24:59.367Z,6.65
2022-09-25T09:26:24.856Z,7.52
2022-09-25T09:29:51.620Z,8.26
2022-09-25T09:33:09.855Z,7.39
2022-09-25T09:35:05.963Z,10.63
2022-09-25T09:36:36.589Z,7.73
2022-09-25T09:38:20.559Z,8.24
2022-09-25T09:40:05.022Z,7.84
2022-09-25T09:43:58.060Z,7.89
2022-09-25T09:45:37.652Z,8.05
2022-09-25T09:47:37.490Z,6.58
2022-09-25T09:49:20.717Z,7.61
2022-09-25T09:50:53.352Z,5.60
2022-09-25T09:53:44.384Z,6.25
2022-09-25T09:55:25.334Z,5.93
2022-09-25T09:56:47.687Z,6.51
2022-09-25T09:58:21.261Z,5.88
2022-09-25T10:00:05.575Z,6.49
2022-09-25T10:01:40.830Z,6.86
2022-09-25T10:04:23.676Z,7.76
2022-09-25T10:05:46.869Z,5.60
2022-09-25T10:07:11.128Z,5.63
2022-09-25T10:08:32.734Z,6.21
2022-09-25T10:09:54.106Z,6.79
2022-09-25T10:12:33.184Z,5.28
2022-09-25T10:13:55.340Z,6.66
2022-09-25T10:15:26.039Z,5.06
2022-09-25T10:16:48.987Z,6.12
2022-09-25T10:18:10.403Z,6.14
2022-09-25T10:20:55.307Z,5.92
2022-09-25T10:22:19.146Z,5.87
2022-09-25T10:23:56.572Z,5.98
2022-09-25T10:25:35.427Z,5.34
2022-09-25T10:26:56.906Z,5.39
2022-09-25T10:29:33.014Z,8.33
2022-09-25T10:30:55.633Z,7.38
2022-09-25T10:33:38.854Z,6.56
2022-09-25T10:35:00.224Z,7.23
2022-09-25T10:38:02.077Z,4.63
2022-09-25T10:39:44.901Z,12.67
2022-09-25T10:41:10.277Z,9.24
2022-09-25T10:42:37.779Z,5.48
2022-09-25T10:44:00.952Z,5.93
2022-09-25T10:45:31.634Z,4.74
2022-09-25T10:46:53.075Z,5.79
2022-09-25T10:48:26.744Z,4.80
2022-09-25T10:49:49.000Z,8.21
2022-09-25T10:51:10.575Z,6.31
2022-09-25T10:54:12.176Z,6.13
2022-09-25T10:55:35.935Z,4.37
2022-09-25T10:56:57.459Z,4.46
2022-09-25T10:59:35.709Z,4.27
2022-09-25T11:00:58.660Z,4.28
2022-09-25T11:03:47.982Z,5.94
2022-09-25T11:05:18.636Z,4.98
2022-09-25T11:06:51.634Z,4.24
2022-09-25T11:08:12.953Z,3.54
2022-09-25T11:09:35.156Z,4.36
2022-09-25T11:11:00.077Z,5.12
2022-09-25T11:12:23.318Z,4.85
2022-09-25T11:13:50.763Z,6.03
2022-09-25T11:15:15.781Z,4.13
2022-09-25T11:16:49.503Z,4.49
2022-09-25T11:18:15.001Z,5.27
2022-09-25T11:19:37.448Z,4.50
2022-09-25T11:21:02.290Z,6.17
2022-09-25T11:24:03.626Z,5.76
2022-09-25T11:27:27.823Z,4.12
2022-09-25T11:28:56.797Z,3.67
2022-09-25T11:30:21.053Z,5.26
2022-09-25T11:33:29.045Z,5.37
2022-09-25T11:35:03.493Z,5.10
2022-09-25T11:36:28.199Z,7.50
2022-09-25T11:37:56.180Z,4.99
2022-09-25T11:39:26.715Z,5.33
2022-09-25T11:41:00.806Z,5.37
2022-09-25T11:42:32.236Z,5.43
2022-09-25T11:44:00.332Z,6.82
2022-09-25T11:47:21.496Z,5.42
2022-09-25T11:48:55.632Z,5.41
2022-09-25T11:50:18.307Z,3.97
2022-09-25T11:51:55.213Z,5.02
2022-09-25T11:53:20.291Z,6.73
2022-09-25T11:55:10.221Z,5.31
2022-09-25T11:56:35.382Z,5.56
2022-09-25T11:58:25.148Z,6.88
2022-09-25T11:59:59.058Z,5.35
2022-09-25T12:03:26.062Z,5.33
2022-09-25T12:06:51.121Z,6.55
2022-09-25T12:08:38.924Z,7.54
2022-09-25T12:11:43.279Z,7.67
2022-09-25T12:13:11.627Z,7.01
2022-09-25T12:14:42.746Z,6.56
2022-09-25T12:16:20.133Z,7.79
2022-09-25T12:19:13.204Z,6.97
2022-09-25T12:20:53.917Z,6.36
2022-09-25T12:22:21.936Z,8.01
2022-09-25T12:24:05.843Z,5.02
2022-09-25T12:27:16.808Z,8.98
2022-09-25T12:28:50.649Z,6.01
2022-09-25T12:30:18.171Z,6.58
2022-09-25T12:31:59.689Z,6.91
2022-09-25T12:33:41.577Z,6.89
2022-09-25T12:35:06.925Z,7.66
2022-09-25T12:36:39.404Z,5.37
2022-09-25T12:38:07.229Z,6.59
2022-09-25T12:39:34.151Z,6.70
2022-09-25T12:41:05.416Z,8.38
2022-09-25T12:43:04.023Z,11.54
2022-09-25T12:44:56.631Z,6.50
2022-09-25T12:46:31.581Z,6.29
2022-09-25T12:48:08.731Z,6.26
2022-09-25T12:49:36.470Z,9.79
2022-09-25T12:51:11.000Z,11.22
2022-09-25T12:53:59.498Z,5.98
2022-09-25T12:55:29.742Z,5.83
2022-09-25T12:57:11.808Z,6.01
2022-09-25T12:58:45.461Z,6.87
2022-09-25T13:00:23.518Z,6.06
2022-09-25T13:01:54.551Z,7.69
2022-09-25T13:03:22.678Z,8.68
2022-09-25T13:05:19.374Z,5.88
2022-09-25T13:07:00.826Z,6.10
2022-09-25T13:08:27.343Z,4.12
2022-09-25T13:09:48.890Z,5.16
2022-09-25T13:11:14.119Z,3.53
2022-09-25T13:12:36.449Z,7.73
2022-09-25T13:13:58.089Z,5.98
2022-09-25T13:15:21.801Z,5.03
2022-09-25T13:16:43.236Z,4.26
2022-09-25T13:18:05.616Z,4.02
2022-09-25T13:19:28.949Z,4.57
2022-09-25T13:20:59.807Z,5.12
2022-09-25T13:22:22.507Z,5.55
2022-09-25T13:23:43.981Z,5.43
2022-09-25T13:26:25.148Z,4.09
2022-09-25T13:27:46.584Z,6.01
2022-09-25T13:30:28.001Z,4.93
2022-09-25T13:31:49.799Z,4.54
2022-09-25T13:33:15.737Z,4.31
2022-09-25T13:34:38.360Z,3.69
2022-09-25T13:37:30.618Z,5.84
2022-09-25T13:38:58.133Z,5.57
2022-09-25T13:41:35.724Z,4.23
2022-09-25T13:43:17.418Z,4.71
2022-09-25T13:44:45.177Z,7.56
2022-09-25T13:46:22.697Z,4.49
2022-09-25T13:49:32.451Z,5.99
2022-09-25T13:50:53.449Z,4.96
2022-09-25T13:52:41.425Z,4.23
2022-09-25T13:54:15.515Z,4.20
2022-09-25T13:55:40.782Z,7.39
2022-09-25T13:57:02.207Z,3.91
2022-09-25T13:58:25.777Z,5.01
2022-09-25T14:00:59.477Z,5.70
2022-09-25T14:03:48.731Z,7.53
2022-09-25T14:05:15.649Z,7.28
2022-09-25T14:06:39.205Z,7.71
2022-09-25T14:08:13.722Z,6.71
2022-09-25T14:09:35.107Z,7.72
2022-09-25T14:10:57.927Z,6.17
2022-09-25T14:12:34.171Z,5.92
2022-09-25T14:13:55.546Z,5.49
2022-09-25T14:15:22.521Z,6.49
2022-09-25T14:16:50.698Z,6.04
2022-09-25T14:18:18.536Z,6.79
2022-09-25T14:19:41.481Z,6.33
2022-09-25T14:21:03.164Z,5.84
2022-09-25T14:22:37.334Z,5.67
2022-09-25T14:25:27.099Z,5.34
2022-09-25T14:26:50.937Z,6.15
2022-09-25T14:28:23.495Z,8.42
2022-09-25T14:29:47.558Z,5.01
2022-09-25T14:31:32.427Z,5.68
2022-09-25T14:33:15.588Z,5.26
2022-09-25T14:36:34.488Z,6.58
2022-09-25T14:38:32.689Z,6.34
2022-09-25T14:40:03.635Z,6.11
2022-09-25T14:41:52.755Z,7.17
2022-09-25T14:43:24.095Z,6.69
2022-09-25T14:45:01.351Z,5.97
2022-09-25T14:46:22.728Z,7.93
2022-09-25T14:47:44.571Z,9.70
2022-09-25T14:49:27.119Z,6.50
2022-09-25T14:52:13.650Z,11.90
2022-09-25T14:53:41.595Z,4.05
2022-09-25T14:55:05.382Z,10.34
2022-09-25T14:56:27.220Z,6.22
2022-09-25T14:57:48.295Z,6.28
2022-09-25T14:59:12.425Z,5.72
2022-09-25T15:01:46.393Z,7.72
2022-09-25T15:03:08.499Z,9.08
2022-09-25T15:04:31.733Z,7.04
2022-09-25T15:05:53.367Z,5.78
2022-09-25T15:07:16.217Z,5.97
2022-09-25T15:08:40.815Z,5.17
2022-09-25T15:10:07.544Z,7.24
2022-09-25T15:12:51.580Z,9.92
2022-09-25T15:14:16.919Z,6.04
2022-09-25T15:15:38.183Z,6.27
2022-09-25T15:16:59.273Z,8.73
2022-09-25T15:18:22.449Z,8.92
2022-09-25T15:19:43.727Z,7.14
2022-09-25T15:21:07.751Z,5.11
2022-09-25T15:22:32.587Z,7.76
2022-09-25T15:23:57.122Z,5.80
2022-09-25T15:25:23.612Z,8.42
2022-09-25T15:28:04.771Z,8.37
2022-09-25T15:29:26.979Z,10.06
2022-09-25T15:30:59.626Z,7.93
2022-09-25T15:32:24.359Z,7.91
2022-09-25T15:33:47.639Z,8.28
2022-09-25T15:35:23.565Z,8.16
2022-09-25T15:36:47.896Z,9.67
2022-09-25T15:38:13.228Z,8.41
2022-09-25T15:39:38.544Z,10.09
2022-09-25T15:40:59.780Z,8.21
2022-09-25T15:42:22.386Z,7.17
2022-09-25T15:43:48.051Z,8.30
2022-09-25T15:45:13.257Z,12.71
2022-09-25T15:47:54.868Z,13.08
2022-09-25T15:49:29.016Z,13.86
2022-09-25T15:50:52.004Z,11.90
2022-09-25T15:52:24.822Z,12.81
2022-09-25T15:55:12.079Z,8.27
2022-09-25T15:56:39.996Z,11.91
2022-09-25T15:58:07.225Z,12.83
2022-09-25T15:59:40.252Z,7.88
2022-09-25T16:01:02.045Z,9.01
2022-09-25T16:02:26.716Z,10.89
2022-09-25T16:03:50.726Z,10.64
2022-09-25T16:05:13.877Z,8.09
2022-09-25T16:08:14.834Z,11.18
2022-09-25T16:09:37.126Z,14.71
2022-09-25T16:12:41.342Z,24.06
2022-09-25T16:15:30.969Z,9.01
2022-09-25T16:16:52.296Z,14.39
2022-09-25T16:18:22.998Z,14.09
2022-09-25T16:19:44.660Z,12.43
2022-09-25T16:21:32.180Z,16.73
2022-09-25T16:22:54.678Z,15.59
2022-09-25T16:25:36.576Z,11.38
2022-09-25T16:27:01.770Z,9.08
2022-09-25T16:28:28.106Z,10.87
2022-09-25T16:29:49.524Z,10.02
2022-09-25T16:31:11.021Z,11.92
2022-09-25T16:32:33.542Z,11.62
2022-09-25T16:33:54.831Z,11.75
2022-09-25T16:35:25.848Z,15.64
2022-09-25T16:36:47.310Z,17.39
2022-09-25T16:40:52.613Z,15.30
2022-09-25T16:43:38.495Z,19.13
2022-09-25T16:45:23.247Z,16.00
2022-09-25T16:48:36.434Z,12.09
2022-09-25T16:49:57.839Z,20.23
2022-09-25T16:51:20.855Z,15.18
2022-09-25T16:52:41.989Z,17.43
2022-09-25T16:54:03.112Z,19.99
2022-09-25T16:55:25.757Z,21.48
2022-09-25T16:56:47.554Z,14.59
2022-09-25T16:58:08.928Z,15.40
2022-09-25T16:59:30.328Z,17.87
2022-09-25T17:00:51.806Z,17.09
2022-09-25T17:02:22.835Z,20.26
2022-09-25T17:03:44.771Z,17.84
2022-09-25T17:05:17.069Z,17.35
2022-09-25T17:06:38.361Z,14.10
2022-09-25T17:08:00.744Z,16.52
2022-09-25T17:09:22.082Z,15.83
2022-09-25T17:10:44.047Z,17.12
2022-09-25T17:12:08.298Z,14.41
2022-09-25T17:13:29.438Z,17.47
2022-09-25T17:14:52.731Z,17.82
2022-09-25T17:16:16.179Z,18.34
2022-09-25T17:17:37.313Z,21.66
2022-09-25T17:19:01.526Z,16.56
2022-09-25T17:20:22.646Z,17.64
2022-09-25T17:21:47.599Z,15.24
2022-09-25T17:23:09.433Z,22.35
2022-09-25T17:24:30.621Z,20.75
2022-09-25T17:26:02.944Z,17.79
2022-09-25T17:27:24.464Z,14.34
2022-09-25T17:28:45.928Z,13.84
2022-09-25T17:30:08.275Z,19.94
2022-09-25T17:31:29.965Z,15.20
2022-09-25T17:32:51.415Z,17.01
2022-09-25T17:34:18.358Z,15.98
2022-09-25T17:36:58.589Z,14.86
2022-09-25T17:38:20.903Z,14.43
2022-09-25T17:39:42.236Z,16.56
2022-09-25T17:41:12.923Z,16.69
2022-09-25T17:42:34.654Z,13.92
2022-09-25T17:43:56.095Z,13.78
2022-09-25T17:46:34.329Z,18.08
2022-09-25T17:47:55.831Z,20.05
2022-09-25T17:49:19.272Z,13.20
2022-09-25T17:52:02.142Z,11.71
2022-09-25T17:54:37.265Z,17.66
2022-09-25T17:55:59.241Z,12.89
2022-09-25T17:57:20.342Z,12.05
2022-09-25T17:58:41.745Z,15.62
2022-09-25T18:00:03.504Z,11.10
2022-09-25T18:01:28.066Z,16.89
2022-09-25T18:02:49.633Z,16.41
2022-09-25T18:04:21.993Z,13.76
2022-09-25T18:05:43.661Z,15.57
2022-09-25T18:07:06.298Z,10.41
2022-09-25T18:08:27.611Z,11.61
2022-09-25T18:09:48.957Z,10.12
2022-09-25T18:11:11.406Z,11.58
2022-09-25T18:12:32.791Z,8.54
2022-09-25T18:13:54.601Z,9.45
2022-09-25T18:15:15.735Z,9.84
2022-09-25T18:16:37.514Z,8.27
2022-09-25T18:17:58.962Z,7.11
2022-09-25T18:19:20.370Z,6.77
2022-09-25T18:20:42.017Z,7.13
2022-09-25T18:22:04.635Z,6.62
2022-09-25T18:23:26.267Z,6.28
2022-09-25T18:24:48.122Z,6.44
2022-09-25T18:26:11.125Z,8.24
2022-09-25T18:27:33.198Z,6.84
2022-09-25T18:28:54.699Z,5.45
2022-09-25T18:30:17.960Z,7.95
2022-09-25T18:32:59.969Z,8.99
2022-09-25T18:34:21.061Z,6.71
2022-09-25T18:35:42.433Z,8.33
2022-09-25T18:37:04.102Z,8.37
2022-09-25T18:38:25.289Z,7.69
2022-09-25T18:39:46.720Z,7.94
2022-09-25T18:41:08.123Z,10.84
2022-09-25T18:42:29.314Z,8.68
2022-09-25T18:43:50.767Z,9.58
2022-09-25T18:45:12.427Z,8.58
2022-09-25T18:46:34.671Z,10.99
2022-09-25T18:47:55.926Z,9.37
2022-09-25T18:49:17.038Z,9.40
2022-09-25T18:50:40.600Z,8.28
2022-09-25T18:52:01.851Z,10.44
2022-09-25T18:53:23.350Z,8.72
2022-09-25T18:54:45.510Z,11.12
2022-09-25T18:56:08.541Z,10.89
2022-09-25T18:57:29.857Z,10.76
2022-09-25T18:58:51.093Z,13.18
2022-09-25T19:00:13.320Z,10.92
2022-09-25T19:01:35.242Z,12.58
2022-09-25T19:02:56.499Z,12.66
2022-09-25T19:04:18.023Z,10.84
2022-09-25T19:05:39.311Z,12.74
2022-09-25T19:07:00.392Z,10.14
2022-09-25T19:08:21.430Z,10.90
2022-09-25T19:09:42.946Z,11.19
2022-09-25T19:12:18.708Z,9.21
2022-09-25T19:13:40.142Z,10.01
2022-09-25T19:15:01.434Z,10.37
2022-09-25T19:16:23.079Z,8.91
2022-09-25T19:17:44.438Z,10.10
2022-09-25T19:19:06.137Z,10.51
2022-09-25T19:20:27.744Z,9.41
2022-09-25T19:21:49.025Z,9.89
2022-09-25T19:23:10.723Z,12.85
2022-09-25T19:24:35.193Z,10.25
2022-09-25T19:25:59.736Z,13.14
2022-09-25T19:27:20.774Z,11.23
2022-09-25T19:28:42.953Z,10.08
2022-09-25T19:30:05.347Z,9.38
2022-09-25T19:31:27.279Z,10.41
2022-09-25T19:32:49.008Z,10.91
2022-09-25T19:35:25.840Z,8.51
2022-09-25T19:36:47.501Z,10.18
2022-09-25T19:38:12.586Z,6.76
2022-09-25T19:40:53.401Z,6.40
2022-09-25T19:42:14.811Z,8.24
2022-09-25T19:43:37.724Z,7.66
2022-09-25T19:44:59.998Z,6.83
2022-09-25T19:46:21.589Z,7.09
2022-09-25T19:47:43.331Z,7.70
2022-09-25T19:49:04.806Z,7.03
2022-09-25T19:50:26.244Z,7.24
2022-09-25T19:51:47.863Z,9.34
2022-09-25T19:53:09.226Z,8.74
2022-09-25T19:54:30.674Z,7.07
2022-09-25T19:55:52.630Z,6.79
2022-09-25T19:57:14.131Z,6.38
2022-09-25T19:58:35.753Z,8.17
2022-09-25T19:59:57.257Z,6.17
2022-09-25T20:01:23.821Z,6.64
2022-09-25T20:02:46.018Z,6.87
2022-09-25T20:04:08.577Z,6.81
2022-09-25T20:05:32.122Z,7.03
2022-09-25T20:06:53.191Z,6.71
2022-09-25T20:08:14.457Z,7.38
2022-09-25T20:09:39.732Z,6.33
2022-09-25T20:10:58.772Z,5.96
2022-09-25T20:12:20.404Z,6.13
2022-09-25T20:13:42.711Z,7.76
2022-09-25T20:15:04.721Z,6.36
2022-09-25T20:16:27.170Z,7.78
2022-09-25T20:17:48.875Z,6.12
2022-09-25T20:19:11.156Z,7.44
2022-09-25T20:20:34.806Z,20.13
2022-09-25T20:21:55.989Z,26.24
2022-09-25T20:23:17.230Z,22.01
2022-09-25T20:24:38.247Z,16.28
2022-09-25T20:27:23.535Z,8.93
2022-09-25T20:28:45.319Z,11.94
2022-09-25T20:30:07.988Z,11.36
2022-09-25T20:31:30.065Z,9.71
2022-09-25T20:32:51.236Z,10.08
2022-09-25T20:34:14.119Z,9.74
2022-09-25T20:35:38.343Z,8.87
2022-09-25T20:36:59.424Z,7.45
2022-09-25T20:38:21.336Z,8.11
2022-09-25T20:39:42.771Z,7.11
2022-09-25T20:42:18.317Z,6.78
2022-09-25T20:43:39.928Z,6.21
2022-09-25T20:45:01.354Z,5.64
2022-09-25T20:46:23.197Z,7.15
2022-09-25T20:47:46.356Z,6.26
2022-09-25T20:49:09.522Z,10.89